sensor_id;sensor_type;location;lat;lon;timestamp;P1;durP1;ratioP1;P2;durP2;ratioP2
51148;SDS011;37210;50.058;8.688;2023-04-15T00:01:59;5.88;;;5.38;;
51148;SDS011;37210;50.058;8.688;2023-04-15T00:04:27;5.47;;;5.07;;
51148;SDS011;37210;50.058;8.688;2023-04-15T00:06:56;5.25;;;4.60;;
51148;SDS011;37210;50.058;8.688;2023-04-15T00:09:23;6.10;;;5.05;;
51148;SDS011;37210;50.058;8.688;2023-04-15T00:11:51;5.50;;;4.97;;
51148;SDS011;37210;50.058;8.688;2023-04-15T00:14:19;5.15;;;4.75;;
51148;SDS011;37210;50.058;8.688;2023-04-15T00:16:46;5.28;;;4.72;;
51148;SDS011;37210;50.058;8.688;2023-04-15T00:19:21;5.32;;;4.93;;
51148;SDS011;37210;50.058;8.688;2023-04-15T00:21:48;6.20;;;5.60;;
51148;SDS011;37210;50.058;8.688;2023-04-15T00:24:16;6.28;;;5.68;;
51148;SDS011;37210;50.058;8.688;2023-04-15T00:26:44;6.63;;;5.25;;
51148;SDS011;37210;50.058;8.688;2023-04-15T00:29:12;5.88;;;5.35;;
51148;SDS011;37210;50.058;8.688;2023-04-15T00:31:40;5.82;;;5.13;;
51148;SDS011;37210;50.058;8.688;2023-04-15T00:34:08;6.07;;;5.43;;
51148;SDS011;37210;50.058;8.688;2023-04-15T00:36:36;6.93;;;6.22;;
51148;SDS011;37210;50.058;8.688;2023-04-15T00:39:04;8.85;;;8.05;;
51148;SDS011;37210;50.058;8.688;2023-04-15T00:41:31;6.03;;;5.40;;
51148;SDS011;37210;50.058;8.688;2023-04-15T00:44:01;5.70;;;5.20;;
51148;SDS011;37210;50.058;8.688;2023-04-15T00:46:29;6.25;;;5.65;;
51148;SDS011;37210;50.058;8.688;2023-04-15T00:48:57;6.72;;;5.43;;
51148;SDS011;37210;50.058;8.688;2023-04-15T00:51:25;5.90;;;5.30;;
51148;SDS011;37210;50.058;8.688;2023-04-15T00:53:53;5.65;;;5.18;;
51148;SDS011;37210;50.058;8.688;2023-04-15T00:56:21;5.57;;;5.10;;
51148;SDS011;37210;50.058;8.688;2023-04-15T00:58:50;7.25;;;6.18;;
51148;SDS011;37210;50.058;8.688;2023-04-15T01:01:18;5.93;;;5.40;;
51148;SDS011;37210;50.058;8.688;2023-04-15T01:03:48;5.45;;;5.05;;
51148;SDS011;37210;50.058;8.688;2023-04-15T01:06:17;5.95;;;5.45;;
51148;SDS011;37210;50.058;8.688;2023-04-15T01:08:45;6.28;;;5.68;;
51148;SDS011;37210;50.058;8.688;2023-04-15T01:11:14;7.68;;;6.30;;
51148;SDS011;37210;50.058;8.688;2023-04-15T01:13:42;7.72;;;6.60;;
51148;SDS011;37210;50.058;8.688;2023-04-15T01:16:10;7.63;;;6.07;;
51148;SDS011;37210;50.058;8.688;2023-04-15T01:18:38;5.63;;;5.13;;
51148;SDS011;37210;50.058;8.688;2023-04-15T01:21:07;6.18;;;5.57;;
51148;SDS011;37210;50.058;8.688;2023-04-15T01:23:34;6.30;;;5.70;;
51148;SDS011;37210;50.058;8.688;2023-04-15T01:26:06;5.93;;;5.32;;
51148;SDS011;37210;50.058;8.688;2023-04-15T01:28:34;5.57;;;4.75;;
51148;SDS011;37210;50.058;8.688;2023-04-15T01:31:04;6.70;;;5.00;;
51148;SDS011;37210;50.058;8.688;2023-04-15T01:33:36;5.32;;;4.93;;
51148;SDS011;37210;50.058;8.688;2023-04-15T01:36:04;6.10;;;5.53;;
51148;SDS011;37210;50.058;8.688;2023-04-15T01:38:34;6.00;;;5.40;;
51148;SDS011;37210;50.058;8.688;2023-04-15T01:41:02;5.55;;;5.13;;
51148;SDS011;37210;50.058;8.688;2023-04-15T01:43:33;5.70;;;5.13;;
51148;SDS011;37210;50.058;8.688;2023-04-15T01:46:02;7.97;;;5.57;;
51148;SDS011;37210;50.058;8.688;2023-04-15T01:48:31;5.57;;;4.90;;
51148;SDS011;37210;50.058;8.688;2023-04-15T01:50:58;5.93;;;5.35;;
51148;SDS011;37210;50.058;8.688;2023-04-15T01:53:26;5.80;;;5.20;;
51148;SDS011;37210;50.058;8.688;2023-04-15T01:55:54;6.45;;;5.30;;
51148;SDS011;37210;50.058;8.688;2023-04-15T01:58:22;7.55;;;5.40;;
51148;SDS011;37210;50.058;8.688;2023-04-15T02:00:51;5.30;;;4.80;;
51148;SDS011;37210;50.058;8.688;2023-04-15T02:03:18;5.55;;;5.07;;
51148;SDS011;37210;50.058;8.688;2023-04-15T02:05:46;5.45;;;4.95;;
51148;SDS011;37210;50.058;8.688;2023-04-15T02:08:14;5.95;;;5.30;;
51148;SDS011;37210;50.058;8.688;2023-04-15T02:10:41;6.15;;;5.45;;
51148;SDS011;37210;50.058;8.688;2023-04-15T02:13:08;6.47;;;5.57;;
51148;SDS011;37210;50.058;8.688;2023-04-15T02:15:36;6.32;;;5.18;;
51148;SDS011;37210;50.058;8.688;2023-04-15T02:18:06;6.75;;;5.97;;
51148;SDS011;37210;50.058;8.688;2023-04-15T02:20:35;6.50;;;5.90;;
51148;SDS011;37210;50.058;8.688;2023-04-15T02:23:02;6.40;;;5.57;;
51148;SDS011;37210;50.058;8.688;2023-04-15T02:25:32;6.13;;;5.53;;
51148;SDS011;37210;50.058;8.688;2023-04-15T02:27:59;5.82;;;5.30;;
51148;SDS011;37210;50.058;8.688;2023-04-15T02:30:27;6.38;;;5.78;;
51148;SDS011;37210;50.058;8.688;2023-04-15T02:32:54;6.15;;;5.55;;
51148;SDS011;37210;50.058;8.688;2023-04-15T02:35:25;6.80;;;5.70;;
51148;SDS011;37210;50.058;8.688;2023-04-15T02:37:54;6.18;;;5.50;;
51148;SDS011;37210;50.058;8.688;2023-04-15T02:40:21;5.65;;;5.15;;
51148;SDS011;37210;50.058;8.688;2023-04-15T02:42:49;6.18;;;5.68;;
51148;SDS011;37210;50.058;8.688;2023-04-15T02:45:17;7.22;;;5.75;;
51148;SDS011;37210;50.058;8.688;2023-04-15T02:47:48;5.50;;;5.00;;
51148;SDS011;37210;50.058;8.688;2023-04-15T02:50:16;5.95;;;5.40;;
51148;SDS011;37210;50.058;8.688;2023-04-15T02:52:45;6.78;;;5.63;;
51148;SDS011;37210;50.058;8.688;2023-04-15T02:55:12;7.63;;;5.30;;
51148;SDS011;37210;50.058;8.688;2023-04-15T02:57:40;6.40;;;5.75;;
51148;SDS011;37210;50.058;8.688;2023-04-15T03:00:09;6.18;;;5.40;;
51148;SDS011;37210;50.058;8.688;2023-04-15T03:02:41;6.72;;;5.32;;
51148;SDS011;37210;50.058;8.688;2023-04-15T03:05:10;6.97;;;5.38;;
51148;SDS011;37210;50.058;8.688;2023-04-15T03:07:44;7.95;;;5.10;;
51148;SDS011;37210;50.058;8.688;2023-04-15T03:10:12;5.55;;;5.10;;
51148;SDS011;37210;50.058;8.688;2023-04-15T03:12:40;5.78;;;5.25;;
51148;SDS011;37210;50.058;8.688;2023-04-15T03:15:11;5.65;;;5.25;;
51148;SDS011;37210;50.058;8.688;2023-04-15T03:17:43;5.55;;;5.13;;
51148;SDS011;37210;50.058;8.688;2023-04-15T03:20:12;5.60;;;5.10;;
51148;SDS011;37210;50.058;8.688;2023-04-15T03:22:40;6.10;;;5.50;;
51148;SDS011;37210;50.058;8.688;2023-04-15T03:25:09;6.18;;;5.25;;
51148;SDS011;37210;50.058;8.688;2023-04-15T03:27:37;5.53;;;5.03;;
51148;SDS011;37210;50.058;8.688;2023-04-15T03:30:05;6.55;;;6.00;;
51148;SDS011;37210;50.058;8.688;2023-04-15T03:32:36;6.13;;;5.53;;
51148;SDS011;37210;50.058;8.688;2023-04-15T03:35:06;7.70;;;5.35;;
51148;SDS011;37210;50.058;8.688;2023-04-15T03:37:34;6.35;;;5.82;;
51148;SDS011;37210;50.058;8.688;2023-04-15T03:40:01;7.05;;;5.93;;
51148;SDS011;37210;50.058;8.688;2023-04-15T03:42:30;7.63;;;6.32;;
51148;SDS011;37210;50.058;8.688;2023-04-15T03:44:58;6.53;;;5.88;;
51148;SDS011;37210;50.058;8.688;2023-04-15T03:47:25;6.55;;;5.95;;
51148;SDS011;37210;50.058;8.688;2023-04-15T03:49:53;8.95;;;6.55;;
51148;SDS011;37210;50.058;8.688;2023-04-15T03:52:20;7.95;;;6.35;;
51148;SDS011;37210;50.058;8.688;2023-04-15T03:54:48;7.82;;;7.10;;
51148;SDS011;37210;50.058;8.688;2023-04-15T03:57:16;7.75;;;6.72;;
51148;SDS011;37210;50.058;8.688;2023-04-15T03:59:45;6.90;;;6.30;;
51148;SDS011;37210;50.058;8.688;2023-04-15T04:02:12;7.13;;;6.53;;
51148;SDS011;37210;50.058;8.688;2023-04-15T04:04:40;7.13;;;6.43;;
51148;SDS011;37210;50.058;8.688;2023-04-15T04:07:08;7.15;;;6.53;;
51148;SDS011;37210;50.058;8.688;2023-04-15T04:09:42;6.88;;;6.10;;
51148;SDS011;37210;50.058;8.688;2023-04-15T04:12:10;7.25;;;6.53;;
51148;SDS011;37210;50.058;8.688;2023-04-15T04:14:38;7.15;;;6.50;;
51148;SDS011;37210;50.058;8.688;2023-04-15T04:17:07;7.60;;;6.95;;
51148;SDS011;37210;50.058;8.688;2023-04-15T04:19:34;7.57;;;6.18;;
51148;SDS011;37210;50.058;8.688;2023-04-15T04:22:02;7.47;;;6.68;;
51148;SDS011;37210;50.058;8.688;2023-04-15T04:24:29;8.00;;;7.15;;
51148;SDS011;37210;50.058;8.688;2023-04-15T04:26:57;7.38;;;6.68;;
51148;SDS011;37210;50.058;8.688;2023-04-15T04:29:24;7.25;;;6.53;;
51148;SDS011;37210;50.058;8.688;2023-04-15T04:31:52;6.90;;;6.20;;
51148;SDS011;37210;50.058;8.688;2023-04-15T04:34:21;8.57;;;6.97;;
51148;SDS011;37210;50.058;8.688;2023-04-15T04:36:48;6.85;;;6.22;;
51148;SDS011;37210;50.058;8.688;2023-04-15T04:39:16;6.50;;;6.00;;
51148;SDS011;37210;50.058;8.688;2023-04-15T04:41:43;7.72;;;6.93;;
51148;SDS011;37210;50.058;8.688;2023-04-15T04:44:11;7.30;;;6.72;;
51148;SDS011;37210;50.058;8.688;2023-04-15T04:46:38;7.05;;;6.35;;
51148;SDS011;37210;50.058;8.688;2023-04-15T04:49:06;6.85;;;6.20;;
51148;SDS011;37210;50.058;8.688;2023-04-15T04:51:35;6.70;;;6.10;;
51148;SDS011;37210;50.058;8.688;2023-04-15T04:54:02;6.97;;;6.38;;
51148;SDS011;37210;50.058;8.688;2023-04-15T04:56:30;7.65;;;5.97;;
51148;SDS011;37210;50.058;8.688;2023-04-15T04:58:59;7.07;;;5.85;;
51148;SDS011;37210;50.058;8.688;2023-04-15T05:01:26;6.40;;;5.40;;
51148;SDS011;37210;50.058;8.688;2023-04-15T05:03:54;9.23;;;5.43;;
51148;SDS011;37210;50.058;8.688;2023-04-15T05:06:22;6.10;;;5.50;;
51148;SDS011;37210;50.058;8.688;2023-04-15T05:08:50;6.40;;;5.88;;
51148;SDS011;37210;50.058;8.688;2023-04-15T05:11:18;6.10;;;5.50;;
51148;SDS011;37210;50.058;8.688;2023-04-15T05:13:45;6.65;;;5.95;;
51148;SDS011;37210;50.058;8.688;2023-04-15T05:16:13;6.60;;;5.90;;
51148;SDS011;37210;50.058;8.688;2023-04-15T05:18:41;6.25;;;5.65;;
51148;SDS011;37210;50.058;8.688;2023-04-15T05:21:09;6.43;;;5.90;;
51148;SDS011;37210;50.058;8.688;2023-04-15T05:23:37;6.43;;;5.93;;
51148;SDS011;37210;50.058;8.688;2023-04-15T05:26:06;8.13;;;6.15;;
51148;SDS011;37210;50.058;8.688;2023-04-15T05:28:33;6.15;;;5.57;;
51148;SDS011;37210;50.058;8.688;2023-04-15T05:31:01;7.10;;;5.72;;
51148;SDS011;37210;50.058;8.688;2023-04-15T05:33:29;5.97;;;5.55;;
51148;SDS011;37210;50.058;8.688;2023-04-15T05:35:57;5.72;;;5.15;;
51148;SDS011;37210;50.058;8.688;2023-04-15T05:38:24;6.28;;;5.78;;
51148;SDS011;37210;50.058;8.688;2023-04-15T05:40:52;6.00;;;5.35;;
51148;SDS011;37210;50.058;8.688;2023-04-15T05:43:21;7.78;;;5.50;;
51148;SDS011;37210;50.058;8.688;2023-04-15T05:45:48;6.78;;;6.05;;
51148;SDS011;37210;50.058;8.688;2023-04-15T05:48:16;6.70;;;5.82;;
51148;SDS011;37210;50.058;8.688;2023-04-15T05:50:43;5.55;;;5.05;;
51148;SDS011;37210;50.058;8.688;2023-04-15T05:53:10;6.68;;;6.10;;
51148;SDS011;37210;50.058;8.688;2023-04-15T05:55:38;6.28;;;5.68;;
51148;SDS011;37210;50.058;8.688;2023-04-15T05:58:05;6.88;;;6.28;;
51148;SDS011;37210;50.058;8.688;2023-04-15T06:00:34;7.53;;;6.10;;
51148;SDS011;37210;50.058;8.688;2023-04-15T06:03:02;6.50;;;6.00;;
51148;SDS011;37210;50.058;8.688;2023-04-15T06:05:31;6.38;;;5.78;;
51148;SDS011;37210;50.058;8.688;2023-04-15T06:07:58;6.60;;;6.00;;
51148;SDS011;37210;50.058;8.688;2023-04-15T06:10:26;6.22;;;5.75;;
51148;SDS011;37210;50.058;8.688;2023-04-15T06:12:54;6.63;;;5.90;;
51148;SDS011;37210;50.058;8.688;2023-04-15T06:15:21;7.30;;;6.28;;
51148;SDS011;37210;50.058;8.688;2023-04-15T06:17:50;7.00;;;6.30;;
51148;SDS011;37210;50.058;8.688;2023-04-15T06:20:18;5.72;;;5.13;;
51148;SDS011;37210;50.058;8.688;2023-04-15T06:22:45;6.95;;;6.22;;
51148;SDS011;37210;50.058;8.688;2023-04-15T06:25:13;7.40;;;6.38;;
51148;SDS011;37210;50.058;8.688;2023-04-15T06:27:41;6.40;;;5.88;;
51148;SDS011;37210;50.058;8.688;2023-04-15T06:30:09;7.05;;;6.32;;
51148;SDS011;37210;50.058;8.688;2023-04-15T06:32:37;7.15;;;6.45;;
51148;SDS011;37210;50.058;8.688;2023-04-15T06:35:06;10.43;;;6.57;;
51148;SDS011;37210;50.058;8.688;2023-04-15T06:37:35;6.53;;;5.90;;
51148;SDS011;37210;50.058;8.688;2023-04-15T06:40:03;6.30;;;5.80;;
51148;SDS011;37210;50.058;8.688;2023-04-15T06:42:31;6.65;;;5.93;;
51148;SDS011;37210;50.058;8.688;2023-04-15T06:44:59;6.07;;;5.57;;
51148;SDS011;37210;50.058;8.688;2023-04-15T06:47:27;6.40;;;5.82;;
51148;SDS011;37210;50.058;8.688;2023-04-15T06:49:54;6.60;;;6.00;;
51148;SDS011;37210;50.058;8.688;2023-04-15T06:52:23;8.95;;;6.50;;
51148;SDS011;37210;50.058;8.688;2023-04-15T06:54:50;6.13;;;5.53;;
51148;SDS011;37210;50.058;8.688;2023-04-15T06:57:18;6.60;;;6.00;;
51148;SDS011;37210;50.058;8.688;2023-04-15T06:59:46;8.68;;;6.53;;
51148;SDS011;37210;50.058;8.688;2023-04-15T07:02:13;6.38;;;5.82;;
51148;SDS011;37210;50.058;8.688;2023-04-15T07:04:41;6.93;;;6.32;;
51148;SDS011;37210;50.058;8.688;2023-04-15T07:07:08;7.20;;;6.28;;
51148;SDS011;37210;50.058;8.688;2023-04-15T07:09:37;6.80;;;6.10;;
51148;SDS011;37210;50.058;8.688;2023-04-15T07:12:04;7.72;;;6.90;;
51148;SDS011;37210;50.058;8.688;2023-04-15T07:14:32;7.22;;;6.55;;
51148;SDS011;37210;50.058;8.688;2023-04-15T07:16:59;7.82;;;6.20;;
51148;SDS011;37210;50.058;8.688;2023-04-15T07:19:27;8.43;;;6.50;;
51148;SDS011;37210;50.058;8.688;2023-04-15T07:21:55;6.93;;;6.20;;
51148;SDS011;37210;50.058;8.688;2023-04-15T07:24:22;7.43;;;6.72;;
51148;SDS011;37210;50.058;8.688;2023-04-15T07:26:54;7.20;;;6.60;;
51148;SDS011;37210;50.058;8.688;2023-04-15T07:29:22;7.53;;;6.78;;
51148;SDS011;37210;50.058;8.688;2023-04-15T07:31:51;6.97;;;6.28;;
51148;SDS011;37210;50.058;8.688;2023-04-15T07:34:19;7.30;;;6.60;;
51148;SDS011;37210;50.058;8.688;2023-04-15T07:36:46;7.13;;;6.43;;
51148;SDS011;37210;50.058;8.688;2023-04-15T07:39:15;7.50;;;6.45;;
51148;SDS011;37210;50.058;8.688;2023-04-15T07:41:45;7.35;;;6.63;;
51148;SDS011;37210;50.058;8.688;2023-04-15T07:44:15;8.05;;;6.72;;
51148;SDS011;37210;50.058;8.688;2023-04-15T07:46:42;8.07;;;7.10;;
51148;SDS011;37210;50.058;8.688;2023-04-15T07:49:10;7.10;;;6.40;;
51148;SDS011;37210;50.058;8.688;2023-04-15T07:51:38;8.00;;;7.20;;
51148;SDS011;37210;50.058;8.688;2023-04-15T07:54:06;7.63;;;6.55;;
51148;SDS011;37210;50.058;8.688;2023-04-15T07:56:34;7.00;;;6.30;;
51148;SDS011;37210;50.058;8.688;2023-04-15T07:59:02;6.85;;;6.25;;
51148;SDS011;37210;50.058;8.688;2023-04-15T08:01:32;6.80;;;6.20;;
51148;SDS011;37210;50.058;8.688;2023-04-15T08:03:59;6.88;;;6.10;;
51148;SDS011;37210;50.058;8.688;2023-04-15T08:06:27;6.35;;;5.75;;
51148;SDS011;37210;50.058;8.688;2023-04-15T08:08:55;6.90;;;6.30;;
51148;SDS011;37210;50.058;8.688;2023-04-15T08:11:23;7.13;;;6.13;;
51148;SDS011;37210;50.058;8.688;2023-04-15T08:13:51;6.97;;;6.28;;
51148;SDS011;37210;50.058;8.688;2023-04-15T08:16:22;6.53;;;5.93;;
51148;SDS011;37210;50.058;8.688;2023-04-15T08:18:54;6.38;;;5.35;;
51148;SDS011;37210;50.058;8.688;2023-04-15T08:21:23;6.25;;;5.65;;
51148;SDS011;37210;50.058;8.688;2023-04-15T08:23:51;6.85;;;6.15;;
51148;SDS011;37210;50.058;8.688;2023-04-15T08:26:20;6.25;;;5.65;;
51148;SDS011;37210;50.058;8.688;2023-04-15T08:28:48;14.55;;;12.38;;
51148;SDS011;37210;50.058;8.688;2023-04-15T08:31:17;6.40;;;5.38;;
51148;SDS011;37210;50.058;8.688;2023-04-15T08:33:45;9.80;;;8.65;;
51148;SDS011;37210;50.058;8.688;2023-04-15T08:36:15;7.57;;;5.95;;
51148;SDS011;37210;50.058;8.688;2023-04-15T08:38:43;6.40;;;5.80;;
51148;SDS011;37210;50.058;8.688;2023-04-15T08:41:15;6.97;;;6.38;;
51148;SDS011;37210;50.058;8.688;2023-04-15T08:43:51;10.98;;;8.95;;
51148;SDS011;37210;50.058;8.688;2023-04-15T08:46:22;5.30;;;4.90;;
51148;SDS011;37210;50.058;8.688;2023-04-15T08:48:50;10.98;;;9.38;;
51148;SDS011;37210;50.058;8.688;2023-04-15T08:51:24;4.15;;;3.40;;
51148;SDS011;37210;50.058;8.688;2023-04-15T08:53:53;4.15;;;3.75;;
51148;SDS011;37210;50.058;8.688;2023-04-15T08:56:22;5.82;;;5.25;;
51148;SDS011;37210;50.058;8.688;2023-04-15T08:58:52;18.30;;;15.85;;
51148;SDS011;37210;50.058;8.688;2023-04-15T09:01:21;15.35;;;13.73;;
51148;SDS011;37210;50.058;8.688;2023-04-15T09:03:49;2.90;;;2.70;;
51148;SDS011;37210;50.058;8.688;2023-04-15T09:06:17;5.22;;;4.22;;
51148;SDS011;37210;50.058;8.688;2023-04-15T09:08:48;4.38;;;3.53;;
51148;SDS011;37210;50.058;8.688;2023-04-15T09:11:16;5.90;;;4.97;;
51148;SDS011;37210;50.058;8.688;2023-04-15T09:13:45;8.30;;;7.47;;
51148;SDS011;37210;50.058;8.688;2023-04-15T09:16:14;3.45;;;3.15;;
51148;SDS011;37210;50.058;8.688;2023-04-15T09:18:41;3.03;;;2.70;;
51148;SDS011;37210;50.058;8.688;2023-04-15T09:21:10;3.55;;;3.25;;
51148;SDS011;37210;50.058;8.688;2023-04-15T09:23:40;3.45;;;2.90;;
51148;SDS011;37210;50.058;8.688;2023-04-15T09:26:30;3.22;;;2.92;;
51148;SDS011;37210;50.058;8.688;2023-04-15T09:29:03;4.38;;;3.80;;
51148;SDS011;37210;50.058;8.688;2023-04-15T09:31:33;3.20;;;2.88;;
51148;SDS011;37210;50.058;8.688;2023-04-15T09:34:01;3.28;;;2.97;;
51148;SDS011;37210;50.058;8.688;2023-04-15T09:36:32;4.32;;;3.10;;
51148;SDS011;37210;50.058;8.688;2023-04-15T09:39:20;4.55;;;2.97;;
51148;SDS011;37210;50.058;8.688;2023-04-15T09:42:04;3.47;;;2.88;;
51148;SDS011;37210;50.058;8.688;2023-04-15T09:44:32;3.50;;;3.20;;
51148;SDS011;37210;50.058;8.688;2023-04-15T09:47:00;2.92;;;2.60;;
51148;SDS011;37210;50.058;8.688;2023-04-15T09:49:28;4.25;;;3.15;;
51148;SDS011;37210;50.058;8.688;2023-04-15T09:51:59;4.38;;;3.15;;
51148;SDS011;37210;50.058;8.688;2023-04-15T09:54:33;2.58;;;2.38;;
51148;SDS011;37210;50.058;8.688;2023-04-15T09:57:06;2.67;;;2.35;;
51148;SDS011;37210;50.058;8.688;2023-04-15T09:59:35;2.40;;;2.20;;
51148;SDS011;37210;50.058;8.688;2023-04-15T10:02:04;4.57;;;2.42;;
51148;SDS011;37210;50.058;8.688;2023-04-15T10:04:34;2.55;;;2.35;;
51148;SDS011;37210;50.058;8.688;2023-04-15T10:07:06;2.88;;;2.22;;
51148;SDS011;37210;50.058;8.688;2023-04-15T10:09:39;2.30;;;2.10;;
51148;SDS011;37210;50.058;8.688;2023-04-15T10:12:08;3.13;;;2.38;;
51148;SDS011;37210;50.058;8.688;2023-04-15T10:14:37;2.20;;;2.10;;
51148;SDS011;37210;50.058;8.688;2023-04-15T10:17:06;1.90;;;1.80;;
51148;SDS011;37210;50.058;8.688;2023-04-15T10:19:37;2.25;;;2.05;;
51148;SDS011;37210;50.058;8.688;2023-04-15T10:22:05;2.47;;;2.20;;
51148;SDS011;37210;50.058;8.688;2023-04-15T10:24:32;2.67;;;2.00;;
51148;SDS011;37210;50.058;8.688;2023-04-15T10:27:03;2.40;;;2.20;;
51148;SDS011;37210;50.058;8.688;2023-04-15T10:29:32;3.55;;;2.00;;
51148;SDS011;37210;50.058;8.688;2023-04-15T10:32:00;2.70;;;2.00;;
51148;SDS011;37210;50.058;8.688;2023-04-15T10:34:29;2.13;;;1.98;;
51148;SDS011;37210;50.058;8.688;2023-04-15T10:37:00;2.22;;;2.03;;
51148;SDS011;37210;50.058;8.688;2023-04-15T10:39:42;2.20;;;2.08;;
51148;SDS011;37210;50.058;8.688;2023-04-15T10:42:12;2.45;;;1.80;;
51148;SDS011;37210;50.058;8.688;2023-04-15T10:44:43;2.40;;;1.95;;
51148;SDS011;37210;50.058;8.688;2023-04-15T10:47:14;3.13;;;2.38;;
51148;SDS011;37210;50.058;8.688;2023-04-15T10:49:46;2.60;;;2.38;;
51148;SDS011;37210;50.058;8.688;2023-04-15T10:52:16;2.20;;;2.00;;
51148;SDS011;37210;50.058;8.688;2023-04-15T10:54:49;2.95;;;2.58;;
51148;SDS011;37210;50.058;8.688;2023-04-15T10:57:34;3.92;;;2.92;;
51148;SDS011;37210;50.058;8.688;2023-04-15T11:00:09;2.63;;;2.43;;
51148;SDS011;37210;50.058;8.688;2023-04-15T11:02:44;4.72;;;2.70;;
51148;SDS011;37210;50.058;8.688;2023-04-15T11:05:14;2.67;;;2.47;;
51148;SDS011;37210;50.058;8.688;2023-04-15T11:07:47;3.00;;;2.80;;
51148;SDS011;37210;50.058;8.688;2023-04-15T11:13:22;4.60;;;2.70;;
51148;SDS011;37210;50.058;8.688;2023-04-15T11:15:56;2.70;;;2.50;;
51148;SDS011;37210;50.058;8.688;2023-04-15T11:18:27;2.72;;;2.53;;
51148;SDS011;37210;50.058;8.688;2023-04-15T11:21:01;2.85;;;2.40;;
51148;SDS011;37210;50.058;8.688;2023-04-15T11:23:33;4.22;;;3.10;;
51148;SDS011;37210;50.058;8.688;2023-04-15T11:26:05;3.20;;;2.90;;
51148;SDS011;37210;50.058;8.688;2023-04-15T11:28:38;3.28;;;2.97;;
51148;SDS011;37210;50.058;8.688;2023-04-15T11:31:09;3.42;;;2.70;;
51148;SDS011;37210;50.058;8.688;2023-04-15T11:33:45;4.60;;;2.83;;
51148;SDS011;37210;50.058;8.688;2023-04-15T11:36:23;3.35;;;2.70;;
51148;SDS011;37210;50.058;8.688;2023-04-15T11:38:56;2.78;;;2.58;;
51148;SDS011;37210;50.058;8.688;2023-04-15T11:41:25;2.45;;;2.25;;
51148;SDS011;37210;50.058;8.688;2023-04-15T11:43:56;2.60;;;2.38;;
51148;SDS011;37210;50.058;8.688;2023-04-15T11:46:27;4.55;;;2.75;;
51148;SDS011;37210;50.058;8.688;2023-04-15T11:48:56;3.00;;;2.70;;
51148;SDS011;37210;50.058;8.688;2023-04-15T11:51:24;4.15;;;3.03;;
51148;SDS011;37210;50.058;8.688;2023-04-15T11:53:52;3.58;;;2.90;;
51148;SDS011;37210;50.058;8.688;2023-04-15T11:56:21;2.83;;;2.47;;
51148;SDS011;37210;50.058;8.688;2023-04-15T11:58:51;2.90;;;2.60;;
51148;SDS011;37210;50.058;8.688;2023-04-15T12:01:30;2.58;;;2.30;;
51148;SDS011;37210;50.058;8.688;2023-04-15T12:04:00;3.00;;;2.70;;
51148;SDS011;37210;50.058;8.688;2023-04-15T12:06:30;2.80;;;2.60;;
51148;SDS011;37210;50.058;8.688;2023-04-15T12:09:08;3.30;;;3.03;;
51148;SDS011;37210;50.058;8.688;2023-04-15T12:11:42;3.75;;;3.35;;
51148;SDS011;37210;50.058;8.688;2023-04-15T12:14:21;3.17;;;2.88;;
51148;SDS011;37210;50.058;8.688;2023-04-15T12:16:55;3.85;;;3.55;;
51148;SDS011;37210;50.058;8.688;2023-04-15T12:19:25;3.33;;;3.03;;
51148;SDS011;37210;50.058;8.688;2023-04-15T12:21:56;4.88;;;3.30;;
51148;SDS011;37210;50.058;8.688;2023-04-15T12:24:26;3.30;;;3.00;;
51148;SDS011;37210;50.058;8.688;2023-04-15T12:26:57;3.53;;;3.22;;
51148;SDS011;37210;50.058;8.688;2023-04-15T12:29:29;3.35;;;2.75;;
51148;SDS011;37210;50.058;8.688;2023-04-15T12:32:04;2.90;;;2.70;;
51148;SDS011;37210;50.058;8.688;2023-04-15T12:34:34;3.17;;;2.97;;
51148;SDS011;37210;50.058;8.688;2023-04-15T12:37:04;3.30;;;3.00;;
51148;SDS011;37210;50.058;8.688;2023-04-15T12:39:35;3.92;;;3.35;;
51148;SDS011;37210;50.058;8.688;2023-04-15T12:42:04;4.45;;;3.65;;
51148;SDS011;37210;50.058;8.688;2023-04-15T12:44:33;3.03;;;2.83;;
51148;SDS011;37210;50.058;8.688;2023-04-15T12:47:03;3.75;;;3.45;;
51148;SDS011;37210;50.058;8.688;2023-04-15T12:49:32;3.40;;;3.05;;
51148;SDS011;37210;50.058;8.688;2023-04-15T12:52:00;4.32;;;3.58;;
51148;SDS011;37210;50.058;8.688;2023-04-15T12:54:29;4.30;;;3.20;;
51148;SDS011;37210;50.058;8.688;2023-04-15T12:56:58;4.72;;;3.00;;
51148;SDS011;37210;50.058;8.688;2023-04-15T12:59:26;3.92;;;3.25;;
51148;SDS011;37210;50.058;8.688;2023-04-15T13:01:54;3.13;;;2.60;;
51148;SDS011;37210;50.058;8.688;2023-04-15T13:04:23;2.80;;;2.60;;
51148;SDS011;37210;50.058;8.688;2023-04-15T13:06:55;2.03;;;1.92;;
51148;SDS011;37210;50.058;8.688;2023-04-15T13:09:23;2.05;;;1.85;;
51148;SDS011;37210;50.058;8.688;2023-04-15T13:11:51;1.70;;;1.52;;
51148;SDS011;37210;50.058;8.688;2023-04-15T13:14:19;1.50;;;1.40;;
51148;SDS011;37210;50.058;8.688;2023-04-15T13:16:48;2.17;;;1.50;;
51148;SDS011;37210;50.058;8.688;2023-04-15T13:19:17;1.70;;;1.60;;
51148;SDS011;37210;50.058;8.688;2023-04-15T13:21:55;1.92;;;1.23;;
51148;SDS011;37210;50.058;8.688;2023-04-15T13:24:24;1.08;;;0.90;;
51148;SDS011;37210;50.058;8.688;2023-04-15T13:26:53;1.00;;;0.90;;
51148;SDS011;37210;50.058;8.688;2023-04-15T13:29:22;2.35;;;1.00;;
51148;SDS011;37210;50.058;8.688;2023-04-15T13:31:58;1.40;;;1.20;;
51148;SDS011;37210;50.058;8.688;2023-04-15T13:34:26;3.70;;;1.35;;
51148;SDS011;37210;50.058;8.688;2023-04-15T13:36:55;0.90;;;0.90;;
51148;SDS011;37210;50.058;8.688;2023-04-15T13:39:22;2.45;;;1.23;;
51148;SDS011;37210;50.058;8.688;2023-04-15T13:41:53;1.35;;;1.08;;
51148;SDS011;37210;50.058;8.688;2023-04-15T13:44:20;1.65;;;0.98;;
51148;SDS011;37210;50.058;8.688;2023-04-15T13:46:48;1.00;;;0.90;;
51148;SDS011;37210;50.058;8.688;2023-04-15T13:49:16;1.42;;;1.27;;
51148;SDS011;37210;50.058;8.688;2023-04-15T13:51:45;2.47;;;1.50;;
51148;SDS011;37210;50.058;8.688;2023-04-15T13:54:14;0.70;;;0.70;;
51148;SDS011;37210;50.058;8.688;2023-04-15T13:56:44;0.70;;;0.70;;
51148;SDS011;37210;50.058;8.688;2023-04-15T13:59:12;1.30;;;1.20;;
51148;SDS011;37210;50.058;8.688;2023-04-15T14:01:40;4.32;;;3.75;;
51148;SDS011;37210;50.058;8.688;2023-04-15T14:04:08;2.20;;;1.10;;
51148;SDS011;37210;50.058;8.688;2023-04-15T14:06:36;0.80;;;0.80;;
51148;SDS011;37210;50.058;8.688;2023-04-15T14:09:03;2.13;;;1.92;;
51148;SDS011;37210;50.058;8.688;2023-04-15T14:11:32;4.22;;;3.58;;
51148;SDS011;37210;50.058;8.688;2023-04-15T14:14:01;2.08;;;1.70;;
51148;SDS011;37210;50.058;8.688;2023-04-15T14:16:28;2.42;;;2.22;;
51148;SDS011;37210;50.058;8.688;2023-04-15T14:18:58;4.43;;;3.70;;
51148;SDS011;37210;50.058;8.688;2023-04-15T14:21:25;1.20;;;1.10;;
51148;SDS011;37210;50.058;8.688;2023-04-15T14:23:54;1.48;;;1.38;;
51148;SDS011;37210;50.058;8.688;2023-04-15T14:26:22;6.03;;;5.40;;
51148;SDS011;37210;50.058;8.688;2023-04-15T14:28:51;2.50;;;2.28;;
51148;SDS011;37210;50.058;8.688;2023-04-15T14:31:18;4.95;;;3.00;;
51148;SDS011;37210;50.058;8.688;2023-04-15T14:33:46;2.08;;;1.52;;
51148;SDS011;37210;50.058;8.688;2023-04-15T14:36:13;1.33;;;1.13;;
51148;SDS011;37210;50.058;8.688;2023-04-15T14:38:41;2.22;;;1.80;;
51148;SDS011;37210;50.058;8.688;2023-04-15T14:41:08;1.50;;;1.40;;
51148;SDS011;37210;50.058;8.688;2023-04-15T14:43:37;1.13;;;0.90;;
51148;SDS011;37210;50.058;8.688;2023-04-15T14:46:06;2.05;;;1.35;;
51148;SDS011;37210;50.058;8.688;2023-04-15T14:48:34;2.05;;;1.27;;
51148;SDS011;37210;50.058;8.688;2023-04-15T14:51:01;2.45;;;2.22;;
51148;SDS011;37210;50.058;8.688;2023-04-15T14:53:29;1.48;;;1.20;;
51148;SDS011;37210;50.058;8.688;2023-04-15T14:55:57;1.77;;;1.58;;
51148;SDS011;37210;50.058;8.688;2023-04-15T14:58:25;1.33;;;1.23;;
51148;SDS011;37210;50.058;8.688;2023-04-15T15:00:52;1.42;;;1.33;;
51148;SDS011;37210;50.058;8.688;2023-04-15T15:03:22;1.05;;;1.00;;